createdAt,value
2024-02-07T00:01:27.644Z,100.00
2024-02-07T00:04:14.985Z,100.00
2024-02-07T00:07:02.343Z,100.00
2024-02-07T00:09:49.570Z,100.00
2024-02-07T00:12:36.793Z,100.00
2024-02-07T00:15:24.645Z,100.00
2024-02-07T00:18:11.825Z,100.00
2024-02-07T00:20:59.214Z,100.00
2024-02-07T00:23:46.505Z,100.00
2024-02-07T00:26:37.133Z,100.00
2024-02-07T00:29:24.378Z,100.00
2024-02-07T00:32:11.584Z,100.00
2024-02-07T00:34:58.874Z,100.00
2024-02-07T00:37:46.054Z,100.00
2024-02-07T00:40:34.443Z,100.00
2024-02-07T00:43:21.766Z,100.00
2024-02-07T00:46:08.984Z,100.00
2024-02-07T00:48:57.686Z,100.00
2024-02-07T00:51:45.141Z,100.00
2024-02-07T00:54:32.392Z,100.00
2024-02-07T00:57:19.566Z,100.00
2024-02-07T01:00:08.657Z,100.00
2024-02-07T01:02:56.443Z,99.03
2024-02-07T01:05:43.746Z,99.40
2024-02-07T01:08:30.956Z,99.45
2024-02-07T01:11:18.093Z,99.05
2024-02-07T01:14:05.300Z,100.00
2024-02-07T01:16:52.506Z,100.00
2024-02-07T01:19:40.207Z,99.75
2024-02-07T01:22:27.455Z,99.49
2024-02-07T01:25:14.872Z,100.00
2024-02-07T01:28:02.057Z,100.00
2024-02-07T01:30:49.249Z,100.00
2024-02-07T01:33:36.919Z,100.00
2024-02-07T01:36:25.578Z,100.00
2024-02-07T01:39:12.782Z,100.00
2024-02-07T01:42:00.539Z,100.00
2024-02-07T01:44:48.004Z,100.00
2024-02-07T01:47:35.276Z,100.00
2024-02-07T01:50:23.073Z,100.00
2024-02-07T01:53:12.350Z,100.00
2024-02-07T01:56:01.765Z,100.00
2024-02-07T01:58:49.385Z,100.00
2024-02-07T02:01:40.183Z,100.00
2024-02-07T02:04:28.126Z,100.00
2024-02-07T02:07:15.547Z,100.00
2024-02-07T02:10:02.874Z,100.00
2024-02-07T02:12:50.849Z,100.00
2024-02-07T02:15:38.085Z,100.00
2024-02-07T02:18:25.332Z,100.00
2024-02-07T02:21:20.603Z,100.00
2024-02-07T02:24:45.262Z,100.00
2024-02-07T02:28:32.480Z,100.00
2024-02-07T02:31:21.381Z,100.00
2024-02-07T02:34:09.035Z,100.00
2024-02-07T02:36:56.755Z,100.00
2024-02-07T02:39:44.322Z,100.00
2024-02-07T02:42:31.483Z,100.00
2024-02-07T02:45:18.912Z,100.00
2024-02-07T02:48:08.732Z,100.00
2024-02-07T02:50:57.142Z,100.00
2024-02-07T02:53:45.129Z,100.00
2024-02-07T02:56:32.572Z,100.00
2024-02-07T02:59:21.764Z,100.00
2024-02-07T03:02:11.790Z,100.00
2024-02-07T03:05:01.998Z,100.00
2024-02-07T03:08:06.957Z,100.00
2024-02-07T03:10:54.984Z,100.00
2024-02-07T03:13:42.306Z,100.00
2024-02-07T03:16:30.206Z,100.00
2024-02-07T03:19:17.652Z,100.00
2024-02-07T03:22:04.981Z,100.00
2024-02-07T03:24:57.220Z,100.00
2024-02-07T03:27:52.071Z,100.00
2024-02-07T03:30:39.342Z,100.00
2024-02-07T03:33:26.733Z,100.00
2024-02-07T03:36:14.211Z,100.00
2024-02-07T03:39:01.615Z,100.00
2024-02-07T03:41:49.597Z,100.00
2024-02-07T03:44:38.243Z,100.00
2024-02-07T03:47:26.216Z,100.00
2024-02-07T03:50:18.081Z,100.00
2024-02-07T03:53:06.280Z,100.00
2024-02-07T03:55:53.571Z,100.00
2024-02-07T03:58:42.498Z,100.00
2024-02-07T04:01:31.123Z,100.00
2024-02-07T04:04:21.635Z,100.00
2024-02-07T04:07:09.155Z,100.00
2024-02-07T04:09:56.493Z,100.00
2024-02-07T04:12:43.568Z,100.00
2024-02-07T04:15:49.160Z,100.00
2024-02-07T04:18:55.111Z,100.00
2024-02-07T04:22:00.963Z,100.00
2024-02-07T04:25:06.922Z,100.00
2024-02-07T04:28:12.790Z,100.00
2024-02-07T04:31:18.721Z,100.00
2024-02-07T04:34:24.322Z,100.00
2024-02-07T04:37:29.954Z,100.00
2024-02-07T04:40:35.778Z,100.00
2024-02-07T04:43:41.605Z,100.00
2024-02-07T04:46:47.570Z,100.00
2024-02-07T04:49:53.415Z,100.00
2024-02-07T04:52:59.235Z,100.00
2024-02-07T04:56:05.035Z,100.00
2024-02-07T04:59:11.145Z,100.00
2024-02-07T05:02:16.793Z,100.00
2024-02-07T05:05:22.693Z,100.00
2024-02-07T05:08:28.305Z,100.00
2024-02-07T05:11:34.265Z,100.00
2024-02-07T05:14:40.025Z,100.00
2024-02-07T05:17:27.332Z,100.00
2024-02-07T05:20:14.799Z,100.00
2024-02-07T05:23:02.108Z,100.00
2024-02-07T05:25:49.624Z,100.00
2024-02-07T05:28:38.223Z,100.00
2024-02-07T05:31:25.962Z,100.00
2024-02-07T05:34:13.509Z,100.00
2024-02-07T05:37:02.715Z,100.00
2024-02-07T05:39:49.846Z,100.00
2024-02-07T05:42:37.019Z,100.00
2024-02-07T05:45:24.226Z,100.00
2024-02-07T05:48:11.471Z,100.00
2024-02-07T05:50:58.643Z,100.00
2024-02-07T05:53:45.909Z,100.00
2024-02-07T05:56:33.143Z,100.00
2024-02-07T05:59:21.529Z,100.00
2024-02-07T06:02:08.772Z,100.00
2024-02-07T06:04:58.565Z,100.00
2024-02-07T06:07:46.506Z,100.00
2024-02-07T06:10:35.420Z,100.00
2024-02-07T06:13:23.042Z,100.00
2024-02-07T06:16:10.281Z,100.00
2024-02-07T06:18:57.970Z,100.00
2024-02-07T06:21:45.160Z,100.00
2024-02-07T06:24:33.117Z,100.00
2024-02-07T06:27:20.312Z,100.00
2024-02-07T06:30:08.294Z,100.00
2024-02-07T06:32:55.581Z,100.00
2024-02-07T06:35:43.569Z,100.00
2024-02-07T06:38:30.842Z,100.00
2024-02-07T06:41:18.032Z,100.00
2024-02-07T06:44:05.654Z,100.00
2024-02-07T06:46:53.039Z,100.00
2024-02-07T06:49:41.303Z,100.00
2024-02-07T06:52:28.652Z,100.00
2024-02-07T06:55:16.007Z,100.00
2024-02-07T06:58:03.290Z,100.00
2024-02-07T07:00:50.621Z,100.00
2024-02-07T07:03:37.903Z,100.00
2024-02-07T07:06:25.187Z,100.00
2024-02-07T07:09:12.664Z,100.00
2024-02-07T07:11:59.809Z,100.00
2024-02-07T07:14:47.239Z,100.00
2024-02-07T07:17:34.438Z,100.00
2024-02-07T07:20:21.712Z,100.00
2024-02-07T07:23:15.687Z,100.00
2024-02-07T07:26:04.311Z,100.00
2024-02-07T07:28:55.454Z,100.00
2024-02-07T07:31:42.789Z,100.00
2024-02-07T07:34:30.052Z,100.00
2024-02-07T07:37:19.292Z,100.00
2024-02-07T07:40:07.422Z,100.00
2024-02-07T07:42:54.628Z,100.00
2024-02-07T07:45:41.901Z,100.00
2024-02-07T07:48:29.163Z,100.00
2024-02-07T07:51:21.447Z,100.00
2024-02-07T07:54:08.817Z,100.00
2024-02-07T07:56:56.089Z,100.00
2024-02-07T07:59:43.244Z,100.00
2024-02-07T08:02:32.078Z,100.00
2024-02-07T08:05:19.474Z,100.00
2024-02-07T08:08:08.717Z,100.00
2024-02-07T08:10:56.183Z,100.00
2024-02-07T08:13:43.739Z,100.00
2024-02-07T08:16:31.044Z,100.00
2024-02-07T08:19:18.400Z,100.00
2024-02-07T08:22:05.630Z,100.00
2024-02-07T08:24:53.467Z,100.00
2024-02-07T08:27:40.646Z,100.00
2024-02-07T08:30:27.897Z,100.00
2024-02-07T08:33:15.353Z,100.00
2024-02-07T08:36:03.695Z,100.00
2024-02-07T08:38:50.963Z,100.00
2024-02-07T08:41:39.462Z,100.00
2024-02-07T08:44:26.696Z,100.00
2024-02-07T08:47:14.069Z,100.00
2024-02-07T08:50:01.225Z,100.00
2024-02-07T08:52:48.562Z,100.00
2024-02-07T08:55:35.866Z,100.00
2024-02-07T08:58:23.103Z,100.00
2024-02-07T09:01:10.467Z,100.00
2024-02-07T09:03:57.777Z,100.00
2024-02-07T09:06:46.584Z,100.00
2024-02-07T09:09:33.836Z,100.00
2024-02-07T09:12:20.952Z,100.00
2024-02-07T09:15:08.605Z,100.00
2024-02-07T09:17:55.824Z,100.00
2024-02-07T09:20:42.994Z,100.00
2024-02-07T09:23:30.176Z,100.00
2024-02-07T09:26:17.321Z,100.00
2024-02-07T09:29:04.685Z,100.00
2024-02-07T09:31:52.020Z,100.00
2024-02-07T09:34:45.854Z,100.00
2024-02-07T09:37:33.218Z,100.00
2024-02-07T09:40:24.758Z,100.00
2024-02-07T09:43:12.140Z,100.00
2024-02-07T09:46:00.823Z,100.00
2024-02-07T09:48:51.256Z,100.00
2024-02-07T09:51:42.486Z,100.00
2024-02-07T09:54:29.937Z,100.00
2024-02-07T09:57:19.118Z,100.00
2024-02-07T10:00:08.695Z,100.00
2024-02-07T10:02:57.222Z,100.00
2024-02-07T10:05:52.115Z,100.00
2024-02-07T10:08:41.210Z,100.00
2024-02-07T10:11:31.253Z,100.00
2024-02-07T10:14:19.043Z,100.00
2024-02-07T10:17:06.683Z,100.00
2024-02-07T10:19:54.731Z,100.00
2024-02-07T10:22:43.053Z,100.00
2024-02-07T10:25:30.546Z,100.00
2024-02-07T10:28:18.436Z,100.00
2024-02-07T10:31:06.306Z,100.00
2024-02-07T10:33:55.638Z,100.00
2024-02-07T10:36:42.974Z,100.00
2024-02-07T10:39:30.356Z,100.00
2024-02-07T10:42:18.520Z,100.00
2024-02-07T10:45:11.710Z,100.00
2024-02-07T10:47:59.067Z,100.00
2024-02-07T10:50:46.962Z,100.00
2024-02-07T10:53:34.602Z,100.00
2024-02-07T10:56:23.434Z,100.00
2024-02-07T10:59:12.966Z,99.30
2024-02-07T11:02:01.440Z,97.93
2024-02-07T11:04:51.623Z,98.99
2024-02-07T11:07:39.315Z,98.34
2024-02-07T11:10:26.830Z,99.39
2024-02-07T11:13:14.537Z,100.00
2024-02-07T11:16:05.455Z,100.00
2024-02-07T11:18:54.822Z,100.00
2024-02-07T11:21:43.995Z,100.00
2024-02-07T11:24:31.973Z,100.00
2024-02-07T11:27:19.415Z,100.00
2024-02-07T11:30:12.052Z,100.00
2024-02-07T11:33:00.010Z,100.00
2024-02-07T11:35:47.536Z,100.00
2024-02-07T11:38:38.781Z,100.00
2024-02-07T11:41:27.317Z,100.00
2024-02-07T11:44:18.493Z,100.00
2024-02-07T11:47:05.958Z,98.72
2024-02-07T11:50:13.272Z,99.41
2024-02-07T11:53:03.206Z,98.23
2024-02-07T11:55:50.766Z,98.64
2024-02-07T11:58:39.078Z,98.83
2024-02-07T12:01:28.662Z,96.53
2024-02-07T12:04:20.405Z,93.13
2024-02-07T12:07:10.492Z,89.87
2024-02-07T12:09:57.819Z,89.29
2024-02-07T12:12:45.224Z,87.12
2024-02-07T12:15:36.774Z,87.50
2024-02-07T12:18:24.137Z,88.31
2024-02-07T12:21:11.647Z,90.28
2024-02-07T12:23:59.132Z,88.57
2024-02-07T12:26:46.384Z,87.51
2024-02-07T12:29:33.629Z,84.74
2024-02-07T12:32:21.804Z,85.88
2024-02-07T12:35:09.170Z,82.85
2024-02-07T12:38:01.253Z,85.34
2024-02-07T12:40:53.984Z,84.36
2024-02-07T12:43:41.908Z,78.44
2024-02-07T12:46:29.117Z,78.91
2024-02-07T12:49:16.493Z,77.93
2024-02-07T12:52:04.696Z,81.08
2024-02-07T12:54:52.109Z,82.65
2024-02-07T12:57:39.349Z,79.22
2024-02-07T13:00:26.574Z,79.83
2024-02-07T13:03:14.056Z,81.53
2024-02-07T13:06:01.487Z,81.98
2024-02-07T13:08:52.515Z,75.16
2024-02-07T13:11:39.851Z,76.91
2024-02-07T13:14:27.040Z,78.70
2024-02-07T13:17:16.110Z,79.81
2024-02-07T13:20:07.199Z,79.73
2024-02-07T13:22:54.554Z,79.63
2024-02-07T13:25:41.873Z,78.26
2024-02-07T13:28:29.206Z,79.53
2024-02-07T13:31:17.016Z,80.52
2024-02-07T13:34:06.263Z,77.66
2024-02-07T13:36:53.484Z,76.81
2024-02-07T13:39:40.689Z,80.10
2024-02-07T13:42:27.967Z,77.32
2024-02-07T13:45:16.139Z,73.15
2024-02-07T13:48:03.842Z,74.52
2024-02-07T13:50:51.324Z,76.63
2024-02-07T13:53:38.575Z,76.06
2024-02-07T13:56:25.929Z,77.63
2024-02-07T13:59:13.237Z,78.30
2024-02-07T14:02:02.391Z,78.96
2024-02-07T14:04:49.949Z,78.40
2024-02-07T14:07:37.224Z,77.62
2024-02-07T14:10:24.562Z,75.98
2024-02-07T14:13:11.870Z,74.97
2024-02-07T14:15:59.238Z,74.45
2024-02-07T14:18:47.260Z,71.96
2024-02-07T14:21:34.568Z,72.95
2024-02-07T14:24:21.869Z,72.84
2024-02-07T14:27:12.459Z,72.57
2024-02-07T14:29:59.833Z,71.14
2024-02-07T14:32:47.330Z,70.68
2024-02-07T14:35:34.792Z,70.55
2024-02-07T14:38:23.862Z,71.73
2024-02-07T14:41:11.233Z,73.39
2024-02-07T14:43:58.547Z,67.84
2024-02-07T14:46:45.919Z,65.92
2024-02-07T14:49:33.305Z,65.45
2024-02-07T14:52:21.745Z,67.83
2024-02-07T14:55:11.544Z,69.76
2024-02-07T14:57:59.078Z,71.77
2024-02-07T15:00:46.289Z,70.25
2024-02-07T15:03:33.753Z,71.07
2024-02-07T15:06:21.393Z,70.10
2024-02-07T15:09:08.685Z,67.95
2024-02-07T15:11:56.924Z,67.31
2024-02-07T15:14:44.168Z,66.87
2024-02-07T15:17:31.349Z,67.82
2024-02-07T15:20:18.682Z,69.52
2024-02-07T15:23:06.174Z,70.69
2024-02-07T15:25:53.514Z,69.64
2024-02-07T15:28:40.855Z,70.44
2024-02-07T15:31:28.021Z,69.83
2024-02-07T15:34:15.507Z,70.47
2024-02-07T15:37:03.025Z,69.57
2024-02-07T15:39:50.232Z,70.03
2024-02-07T15:42:37.564Z,70.91
2024-02-07T15:45:24.951Z,70.61
2024-02-07T15:48:13.098Z,71.56
2024-02-07T15:51:00.625Z,73.95
2024-02-07T15:53:47.939Z,73.99
2024-02-07T15:56:36.730Z,75.76
2024-02-07T15:59:23.874Z,76.03
2024-02-07T16:02:11.132Z,76.05
2024-02-07T16:04:58.690Z,74.75
2024-02-07T16:07:46.155Z,74.29
2024-02-07T16:10:33.675Z,74.22
2024-02-07T16:13:20.877Z,74.76
2024-02-07T16:16:08.076Z,75.57
2024-02-07T16:18:55.952Z,74.58
2024-02-07T16:21:43.170Z,73.08
2024-02-07T16:24:32.563Z,74.99
2024-02-07T16:27:21.810Z,74.96
2024-02-07T16:30:10.710Z,75.94
2024-02-07T16:32:59.221Z,75.53
2024-02-07T16:35:46.603Z,75.47
2024-02-07T16:38:33.857Z,73.85
2024-02-07T16:41:21.094Z,74.66
2024-02-07T16:44:09.096Z,76.14
2024-02-07T16:46:56.884Z,76.29
2024-02-07T16:49:44.324Z,76.11
2024-02-07T16:52:31.496Z,76.16
2024-02-07T16:55:18.755Z,76.24
2024-02-07T16:58:07.361Z,75.44
2024-02-07T17:00:54.606Z,75.81
2024-02-07T17:03:41.853Z,75.17
2024-02-07T17:06:30.013Z,76.89
2024-02-07T17:09:17.227Z,78.37
2024-02-07T17:12:05.009Z,78.13
2024-02-07T17:14:52.195Z,78.63
2024-02-07T17:17:39.485Z,79.23
2024-02-07T17:20:26.847Z,79.27
2024-02-07T17:23:14.195Z,79.12
2024-02-07T17:26:01.712Z,79.60
2024-02-07T17:28:49.214Z,80.11
2024-02-07T17:31:36.566Z,79.93
2024-02-07T17:34:23.982Z,79.95
2024-02-07T17:37:11.208Z,80.19
2024-02-07T17:39:58.461Z,81.19
2024-02-07T17:42:46.707Z,81.23
2024-02-07T17:45:33.933Z,81.16
2024-02-07T17:48:21.218Z,81.44
2024-02-07T17:51:09.028Z,81.16
2024-02-07T17:53:56.645Z,81.72
2024-02-07T17:56:44.037Z,81.99
2024-02-07T17:59:31.269Z,81.24
2024-02-07T18:02:18.584Z,81.03
2024-02-07T18:05:06.631Z,81.72
2024-02-07T18:07:56.908Z,81.65
2024-02-07T18:10:44.406Z,81.52
2024-02-07T18:13:33.088Z,80.50
2024-02-07T18:16:21.585Z,79.39
2024-02-07T18:19:08.980Z,80.60
2024-02-07T18:21:56.257Z,79.83
2024-02-07T18:24:43.555Z,80.76
2024-02-07T18:27:30.702Z,81.19
2024-02-07T18:30:19.785Z,80.86
2024-02-07T18:33:08.719Z,80.64
2024-02-07T18:35:55.967Z,81.20
2024-02-07T18:38:44.439Z,81.58
2024-02-07T18:41:31.833Z,82.00
2024-02-07T18:44:20.401Z,82.00
2024-02-07T18:47:07.694Z,82.35
2024-02-07T18:49:55.951Z,82.99
2024-02-07T18:52:43.294Z,82.94
2024-02-07T18:55:30.769Z,81.40
2024-02-07T18:58:19.497Z,82.55
2024-02-07T19:01:06.915Z,83.05
2024-02-07T19:03:55.056Z,83.11
2024-02-07T19:06:42.758Z,83.09
2024-02-07T19:09:31.026Z,83.56
2024-02-07T19:12:18.605Z,84.06
2024-02-07T19:15:06.746Z,84.39
2024-02-07T19:17:54.547Z,84.60
2024-02-07T19:20:43.237Z,84.98
2024-02-07T19:23:30.593Z,84.34
2024-02-07T19:26:17.803Z,84.67
2024-02-07T19:29:05.096Z,84.97
2024-02-07T19:31:52.544Z,85.45
2024-02-07T19:34:39.905Z,85.07
2024-02-07T19:37:28.718Z,85.37
2024-02-07T19:40:16.167Z,85.49
2024-02-07T19:43:03.804Z,85.75
2024-02-07T19:45:51.083Z,86.19
2024-02-07T19:48:38.366Z,86.37
2024-02-07T19:51:25.736Z,86.44
2024-02-07T19:54:12.965Z,86.56
2024-02-07T19:57:00.484Z,86.49
2024-02-07T19:59:47.691Z,86.48
2024-02-07T20:02:36.006Z,86.45
2024-02-07T20:05:25.468Z,86.54
2024-02-07T20:08:13.917Z,86.78
2024-02-07T20:11:01.367Z,87.12
2024-02-07T20:13:49.112Z,87.46
2024-02-07T20:16:36.613Z,87.93
2024-02-07T20:19:24.629Z,88.10
2024-02-07T20:22:12.006Z,88.27
2024-02-07T20:24:59.231Z,88.19
2024-02-07T20:27:46.485Z,88.16
2024-02-07T20:30:33.685Z,88.22
2024-02-07T20:33:20.920Z,88.38
2024-02-07T20:36:08.655Z,88.53
2024-02-07T20:38:56.191Z,88.66
2024-02-07T20:41:45.405Z,88.81
2024-02-07T20:44:32.876Z,88.94
2024-02-07T20:47:20.021Z,89.15
2024-02-07T20:50:08.136Z,89.13
2024-02-07T20:52:56.553Z,89.09
2024-02-07T20:55:45.611Z,88.81
2024-02-07T20:58:33.048Z,88.45
2024-02-07T21:01:20.879Z,87.80
2024-02-07T21:04:08.312Z,87.56
2024-02-07T21:06:55.731Z,88.34
2024-02-07T21:09:43.015Z,88.80
2024-02-07T21:12:30.192Z,89.04
2024-02-07T21:15:20.073Z,89.41
2024-02-07T21:18:07.664Z,89.20
2024-02-07T21:20:54.862Z,89.06
2024-02-07T21:23:42.898Z,89.39
2024-02-07T21:26:30.038Z,89.36
2024-02-07T21:29:18.760Z,89.58
2024-02-07T21:32:10.632Z,89.42
2024-02-07T21:34:58.080Z,89.10
2024-02-07T21:37:45.912Z,89.22
2024-02-07T21:40:33.190Z,89.01
2024-02-07T21:43:20.567Z,89.39
2024-02-07T21:46:09.028Z,89.89
2024-02-07T21:48:56.264Z,89.81
2024-02-07T21:51:43.582Z,89.44
2024-02-07T21:54:30.853Z,89.53
2024-02-07T21:57:18.920Z,89.72
2024-02-07T22:00:07.343Z,89.82
2024-02-07T22:02:54.618Z,90.17
2024-02-07T22:05:41.906Z,90.37
2024-02-07T22:08:29.185Z,89.55
2024-02-07T22:11:16.825Z,88.64
2024-02-07T22:14:07.131Z,88.46
2024-02-07T22:16:54.458Z,89.10
2024-02-07T22:19:43.445Z,89.58
2024-02-07T22:22:31.265Z,89.59
2024-02-07T22:25:18.572Z,89.90
2024-02-07T22:28:07.142Z,90.08
2024-02-07T22:30:54.410Z,90.42
2024-02-07T22:33:41.556Z,90.79
2024-02-07T22:36:28.802Z,90.85
2024-02-07T22:39:16.365Z,91.07
2024-02-07T22:42:06.258Z,91.25
2024-02-07T22:44:53.486Z,91.47
2024-02-07T22:47:40.955Z,91.63
2024-02-07T22:50:28.343Z,91.88
2024-02-07T22:53:15.603Z,92.18
2024-02-07T22:56:03.296Z,92.02
2024-02-07T22:58:50.595Z,92.11
2024-02-07T23:01:37.836Z,92.13
2024-02-07T23:04:25.116Z,92.23
2024-02-07T23:07:12.716Z,92.25
2024-02-07T23:09:59.856Z,92.38
2024-02-07T23:12:46.997Z,92.43
2024-02-07T23:15:34.143Z,92.26
2024-02-07T23:18:21.726Z,92.36
2024-02-07T23:21:08.947Z,92.22
2024-02-07T23:23:56.112Z,92.19
2024-02-07T23:26:45.972Z,91.98
2024-02-07T23:29:33.403Z,92.12
2024-02-07T23:32:20.735Z,92.29
2024-02-07T23:35:08.560Z,92.42
2024-02-07T23:37:55.796Z,92.35
2024-02-07T23:40:43.188Z,91.79
2024-02-07T23:43:30.411Z,91.79
2024-02-07T23:46:17.590Z,92.17
2024-02-07T23:49:04.924Z,92.23
2024-02-07T23:51:53.256Z,91.52
2024-02-07T23:54:40.414Z,91.18
2024-02-07T23:57:27.797Z,90.96
